Last 7 Days

Abernathy 3 (AB3)

Hourly Data | America/Los_Angeles
as of 1/25/20 10:02 PM PST
Date & Time Temp (°F) RH (%) Dew Pt (°F) Wind Spd (mph) Wind Dir (°) Wind Gust (mph) Latest Rain (In) Daily Rain (In) Daily Min Temp (°F) Daily Max Temp (°F)
1/25/20 - 2100 57.4 91 54.9 2.6 SSW | 201 7.4 0.00 0.00 50.0 62.5
1/25/20 - 2000 57.5 89 54.3 4.5 SSW | 199 10.1 0.00 0.00 50.0 62.5
1/25/20 - 1900 56.9 89 53.8 1.6 SSE | 160 6.4 0.00 0.00 50.0 62.5
1/25/20 - 1800 57.4 88 53.8 1.9 SSE | 162 3.8 0.00 0.00 50.0 62.5
1/25/20 - 1700 58.8 84 54.1 2.2 ESE | 116 4.4 0.00 0.00 50.0 62.5
1/25/20 - 1600 60.2 81 54.3 3.5 ESE | 116 6.1 0.00 0.00 50.0 62.5
1/25/20 - 1500 61.1 79 54.5 4.1 ESE | 109 9.1 0.00 0.00 50.0 62.5
1/25/20 - 1400 62.1 75 54.1 3.2 SSE | 157 8.1 0.00 0.00 50.0 62.5
1/25/20 - 1300 61.3 75 53.2 2.6 SE | 134 5.4 0.00 0.00 50.0 62.3
1/25/20 - 1200 60.3 77 52.9 1.5 ESE | 113 5.1 0.00 0.00 50.0 60.9
1/25/20 - 1100 57.8 83 52.8 2.5 E | 92 6.1 0.00 0.00 50.0 59.0
1/25/20 - 1000 55.9 91 53.2 1.2 SSE | 160 4.4 0.00 0.00 50.0 57.0
1/25/20 - 0900 53.7 96 52.6 0.6 WSW | 254 2.7 0.00 0.00 50.0 54.9
1/25/20 - 0800 52.1 97 51.4 1.7 NNW | 337 4.4 0.00 0.00 50.0 53.1
1/25/20 - 0700 50.9 98 50.2 0.7 W | 272 2.4 0.00 0.00 50.0 53.1
1/25/20 - 0600 50.7 97 49.9 0.4 W | 261 0.4 0.00 0.00 50.0 53.1
1/25/20 - 0500 50.3 96 49.4 0.7 NW | 325 4.1 0.00 0.00 50.0 53.1
1/25/20 - 0400 51.5 95 50.2 0.8 SE | 129 2.4 0.00 0.00 50.7 53.1
1/25/20 - 0300 52.5 94 50.9 0.7 S | 172 2.7 0.00 0.00 52.1 53.1
1/25/20 - 0200 52.8 95 51.3 0.4 SE | 144 1.1 0.00 0.00 52.3 53.1
1/25/20 - 0100 52.6 94 51.1 0.6 SSE | 157 2.4 0.00 0.00 52.3 53.1
1/25/20 - 0000 52.8 94 51.2 0.5 SSW | 206 2.1 0.00 0.00 41.7 66.3
1/24/20 - 2300 53.5 93 51.4 2.3 SSW | 196 4.4 0.00 0.00 41.7 66.3
1/24/20 - 2200 54.3 89 51.1 2.1 SE | 135 4.8 0.00 0.00 41.7 66.3
1/24/20 - 2100 55.2 89 52.1 2.1 ESE | 112 5.8 0.00 0.00 41.7 66.3
1/24/20 - 2000 56.9 86 52.6 2.3 ESE | 104 4.8 0.00 0.00 41.7 66.3
1/24/20 - 1900 59.3 75 51.2 1.2 SSW | 198 3.8 0.00 0.00 41.7 66.3
1/24/20 - 1800 60.4 75 52.3 2.4 WSW | 239 6.4 0.00 0.00 41.7 66.3
1/24/20 - 1700 62.3 74 53.9 4.0 SW | 229 8.8 0.00 0.00 41.7 66.3
1/24/20 - 1600 64.1 69 53.9 4.5 SW | 223 9.5 0.00 0.00 41.7 66.3
1/24/20 - 1500 63.8 70 53.9 4.8 SSW | 209 9.8 0.00 0.00 41.7 66.3
1/24/20 - 1400 64.7 67 53.4 4.2 S | 191 11.1 0.00 0.00 41.7 66.3
1/24/20 - 1300 62.4 73 53.7 4.7 S | 180 10.1 0.00 0.00 41.7 64.1
1/24/20 - 1200 60.6 77 53.3 5.4 SSE | 168 11.8 0.00 0.00 41.7 62.2
1/24/20 - 1100 58.3 82 52.7 6.5 SSW | 197 11.8 0.00 0.00 41.7 59.2
1/24/20 - 1000 54.7 88 51.2 5.3 SSW | 199 8.8 0.00 0.00 41.7 57.0
1/24/20 - 0900 48.0 97 47.3 2.2 WSW | 245 6.4 0.00 0.00 41.7 53.1
1/24/20 - 0800 43.0 98 42.4 1.2 NNW | 329 5.4 0.00 0.00 41.7 45.8
1/24/20 - 0700 43.3 98 42.7 1.7 ENE | 57 4.1 0.00 0.00 41.7 45.8
1/24/20 - 0600 43.8 98 43.2 2.0 N | 358 5.8 0.00 0.00 41.7 45.8
1/24/20 - 0500 42.2 98 41.6 1.7 W | 273 4.4 0.00 0.00 41.7 45.8
1/24/20 - 0400 43.0 98 42.4 0.5 W | 268 2.4 0.00 0.00 42.3 45.8
1/24/20 - 0300 43.2 97 42.5 1.0 WNW | 296 4.8 0.00 0.00 42.6 45.8
1/24/20 - 0200 43.8 97 43.0 1.4 W | 280 4.1 0.00 0.00 43.0 45.8
1/24/20 - 0100 44.8 97 43.9 1.7 WNW | 282 4.1 0.00 0.00 43.6 45.8
1/24/20 - 0000 45.7 96 44.8 2.1 NW | 314 4.4 0.00 0.00 40.2 57.8
1/23/20 - 2300 46.9 95 45.6 1.1 NW | 310 3.4 0.00 0.00 40.2 57.8
1/23/20 - 2200 48.8 94 47.3 0.6 WNW | 301 2.7 0.00 0.00 40.2 57.8
1/23/20 - 2100 49.5 94 47.9 0.6 WNW | 303 2.7 0.00 0.00 40.2 57.8
1/23/20 - 2000 50.4 92 48.3 0.5 W | 264 2.7 0.00 0.00 40.2 57.8
1/23/20 - 1900 52.2 90 49.2 0.4 WSW | 237 1.7 0.00 0.00 40.2 57.8
1/23/20 - 1800 54.1 84 49.3 1.3 SE | 125 3.8 0.00 0.00 40.2 57.8
1/23/20 - 1700 56.2 77 49.0 2.3 ESE | 107 5.8 0.00 0.00 40.2 57.8
1/23/20 - 1600 57.5 70 47.9 3.7 E | 82 6.8 0.00 0.00 40.2 57.8
1/23/20 - 1500 57.3 68 46.9 3.9 ENE | 73 8.4 0.00 0.00 40.2 57.7
1/23/20 - 1400 56.7 73 48.0 2.3 SSE | 151 7.8 0.00 0.00 40.2 57.2
1/23/20 - 1300 55.2 80 49.1 2.7 SW | 218 6.8 0.00 0.00 40.2 55.8
1/23/20 - 1200 52.8 83 47.9 3.1 SSW | 197 7.4 0.00 0.00 40.2 54.2
1/23/20 - 1100 50.4 90 47.4 1.4 S | 184 3.8 0.00 0.00 40.2 51.7
1/23/20 - 1000 47.0 97 46.3 0.4 SW | 225 2.7 0.00 0.00 40.2 48.4
1/23/20 - 0900 43.5 98 43.1 0.4 W | 271 1.4 0.00 0.00 40.2 45.5
1/23/20 - 0800 41.7 98 41.2 0.5 NNE | 22 2.4 0.00 0.00 40.2 44.8
1/23/20 - 0700 41.0 98 40.4 0.5 W | 265 2.7 0.00 0.00 40.2 44.8
1/23/20 - 0600 40.8 98 40.3 0.5 WNW | 294 2.7 0.00 0.00 40.2 44.8
1/23/20 - 0500 41.1 98 40.5 0.4 NNW | 335 0.4 0.00 0.00 40.4 44.8
1/23/20 - 0400 41.2 97 40.5 0.5 NW | 323 2.7 0.00 0.00 40.7 44.8
1/23/20 - 0300 42.0 97 41.2 0.6 WNW | 298 3.4 0.00 0.00 41.4 44.8
1/23/20 - 0200 42.9 97 42.1 0.7 NW | 322 3.8 0.00 0.00 42.6 44.8
1/23/20 - 0100 43.8 96 42.8 0.5 NW | 310 2.7 0.00 0.00 43.2 44.8
1/23/20 - 0000 44.4 96 43.4 1.2 NW | 308 4.1 0.00 0.00 42.9 64.1
1/22/20 - 2300 45.5 95 44.2 1.6 NW | 311 4.8 0.00 0.00 42.9 64.1
1/22/20 - 2200 46.6 95 45.2 1.9 NW | 306 3.8 0.00 0.00 42.9 64.1
1/22/20 - 2100 47.1 94 45.5 1.8 NW | 319 4.4 0.00 0.00 42.9 64.1
1/22/20 - 2000 48.9 91 46.4 1.3 NW | 312 3.4 0.00 0.00 42.9 64.1
1/22/20 - 1900 52.7 82 47.2 1.0 NNE | 15 3.8 0.00 0.00 42.9 64.1
1/22/20 - 1800 56.4 73 48.0 1.7 E | 81 5.1 0.00 0.00 42.9 64.1
1/22/20 - 1700 60.0 66 48.4 4.2 NE | 48 9.1 0.00 0.00 42.9 64.1
1/22/20 - 1600 62.4 57 47.1 3.1 ENE | 60 8.8 0.00 0.00 42.9 64.1
1/22/20 - 1500 62.9 53 45.4 2.2 SE | 128 6.8 0.00 0.00 42.9 64.1
1/22/20 - 1400 61.8 53 44.7 2.6 SSE | 151 6.4 0.00 0.00 42.9 62.7
1/22/20 - 1300 60.0 55 43.9 1.5 ESE | 115 5.1 0.00 0.00 42.9 61.7
1/22/20 - 1200 58.3 62 45.4 3.2 E | 95 7.8 0.00 0.00 42.9 59.4
1/22/20 - 1100 57.1 65 45.6 2.5 NE | 55 8.4 0.00 0.00 42.9 58.1
1/22/20 - 1000 52.4 80 46.3 3.6 NNW | 334 7.8 0.00 0.00 42.9 55.6
1/22/20 - 0900 47.4 94 45.8 3.4 NW | 326 7.8 0.00 0.00 42.9 52.6
1/22/20 - 0800 43.6 98 43.0 3.1 NW | 315 6.1 0.00 0.00 42.9 52.6
1/22/20 - 0700 43.4 98 42.8 2.6 NW | 309 5.4 0.00 0.00 43.2 52.6
1/22/20 - 0600 44.8 97 44.0 1.6 NW | 307 4.4 0.00 0.00 43.7 52.6
1/22/20 - 0500 47.2 96 46.2 0.4 NW | 311 1.7 0.00 0.00 45.7 52.6
1/22/20 - 0400 49.1 96 48.0 1.8 NNW | 331 3.8 0.00 0.00 48.6 52.6
1/22/20 - 0300 50.2 95 48.8 1.7 W | 277 5.1 0.00 0.00 49.2 52.6
1/22/20 - 0200 51.4 96 50.2 2.3 SSW | 212 4.8 0.00 0.00 51.2 52.6
1/22/20 - 0100 52.2 94 50.6 3.5 S | 191 5.8 0.00 0.00 51.7 52.6
1/22/20 - 0000 52.9 94 51.2 3.1 S | 187 8.1 0.00 0.19 37.5 53.6
1/21/20 - 2300 53.1 94 51.4 7.2 SSW | 211 14.5 0.00 0.19 37.5 53.6
1/21/20 - 2200 52.9 96 51.9 5.4 SSW | 212 9.8 0.00 0.19 37.5 53.6
1/21/20 - 2100 52.2 98 51.6 3.9 SSW | 204 6.1 0.00 0.19 37.5 53.6
1/21/20 - 2000 52.6 96 51.5 3.0 SW | 234 5.4 0.00 0.19 37.5 53.6
1/21/20 - 1900 52.7 96 51.4 2.6 SSW | 209 6.4 0.01 0.19 37.5 53.6
1/21/20 - 1800 52.9 96 51.8 3.4 S | 181 6.4 0.01 0.18 37.5 53.6
1/21/20 - 1700 53.2 96 52.2 2.2 SSE | 154 5.4 0.05 0.17 37.5 53.6
1/21/20 - 1600 52.8 96 51.6 2.0 WNW | 302 6.1 0.06 0.12 37.5 53.6
1/21/20 - 1500 52.7 93 50.6 1.7 NW | 322 6.4 0.01 0.06 37.5 53.6
1/21/20 - 1400 53.2 85 48.8 0.8 W | 264 3.8 0.01 0.05 37.5 53.6
1/21/20 - 1300 53.0 82 47.5 0.4 WSW | 254 2.7 0.00 0.04 37.5 53.6
1/21/20 - 1200 52.4 81 46.8 0.4 E | 86 1.7 0.00 0.04 37.5 53.0
1/21/20 - 1100 50.6 88 47.2 0.6 NW | 309 2.7 0.00 0.04 37.5 51.6
1/21/20 - 1000 48.6 95 47.4 2.6 NW | 320 5.8 0.00 0.04 37.5 49.5
1/21/20 - 0900 46.2 98 45.8 1.8 WNW | 286 4.4 0.00 0.04 37.5 47.4
1/21/20 - 0800 44.7 98 44.2 1.2 NNE | 32 3.1 0.01 0.04 37.5 45.2
1/21/20 - 0700 43.9 98 43.4 0.4 WNW | 291 2.4 0.03 0.03 37.5 44.2
1/21/20 - 0600 43.1 98 42.6 0.8 NNE | 16 3.4 0.00 0.00 37.5 43.4
1/21/20 - 0500 41.1 98 40.6 0.9 NW | 308 3.4 0.00 0.00 37.5 42.2
1/21/20 - 0400 40.6 98 40.0 0.6 ENE | 61 3.4 0.00 0.00 37.5 40.8
1/21/20 - 0300 39.5 98 39.0 1.2 NNW | 333 3.4 0.00 0.00 37.5 40.8
1/21/20 - 0200 38.1 97 37.5 1.3 WNW | 302 4.1 0.00 0.00 37.5 39.1
1/21/20 - 0100 38.7 97 37.9 0.7 NW | 311 2.7 0.00 0.00 38.4 39.1
1/21/20 - 0000 39.6 96 38.6 0.9 NW | 309 3.1 0.00 0.00 38.6 53.0
1/20/20 - 2300 41.2 94 39.7 0.8 NNW | 347 3.1 0.00 0.00 40.0 53.0
1/20/20 - 2200 43.4 93 41.6 1.8 NW | 313 5.4 0.00 0.00 40.0 53.0
1/20/20 - 2100 44.3 92 42.3 1.4 W | 278 4.8 0.00 0.00 40.0 53.0
1/20/20 - 2000 46.0 91 43.4 0.7 SE | 144 3.1 0.00 0.00 40.0 53.0
1/20/20 - 1900 47.4 87 43.7 0.4 NNE | 15 1.7 0.00 0.00 40.0 53.0
1/20/20 - 1800 49.5 81 44.0 1.3 SSE | 154 4.8 0.00 0.00 40.0 53.0
1/20/20 - 1700 51.0 75 43.6 1.7 S | 178 4.4 0.00 0.00 40.0 53.0
1/20/20 - 1600 51.8 74 43.8 3.2 SE | 144 6.1 0.00 0.00 40.0 53.0
1/20/20 - 1500 52.1 71 42.8 1.1 S | 177 3.8 0.00 0.00 40.0 53.0
1/20/20 - 1400 49.6 80 43.8 0.9 SE | 145 3.1 0.00 0.00 40.0 51.1
1/20/20 - 1300 47.3 85 43.1 2.1 W | 278 4.8 0.00 0.00 40.0 48.2
1/20/20 - 1200 45.7 91 43.2 1.8 S | 184 5.8 0.00 0.00 40.0 46.7
1/20/20 - 1100 43.8 96 42.8 1.2 NW | 304 3.4 0.00 0.00 40.0 45.0
1/20/20 - 1000 42.5 98 41.9 1.3 S | 187 4.1 0.00 0.00 40.0 43.1
1/20/20 - 0900 41.2 98 40.7 1.0 N | 349 4.1 0.00 0.00 40.0 41.8
1/20/20 - 0800 40.4 98 39.9 1.1 SE | 130 4.8 0.00 0.00 40.0 41.6
1/20/20 - 0700 40.7 98 40.1 1.0 E | 89 3.4 0.00 0.00 40.3 41.6
1/20/20 - 0600 40.7 98 40.1 1.5 SSW | 203 4.4 0.00 0.00 40.3 41.6
1/20/20 - 0500 40.7 97 40.0 1.1 W | 262 4.8 0.00 0.00 40.5 41.6
1/20/20 - 0400 41.0 97 40.3 1.2 N | 10 4.4 0.00 0.00 40.8 41.6
1/20/20 - 0300 41.1 97 40.4 1.0 WNW | 290 4.1 0.00 0.00 40.8 41.6
1/20/20 - 0200 41.2 97 40.5 1.7 NNW | 327 4.4 0.00 0.00 40.8 41.6
1/20/20 - 0100 41.0 97 40.2 0.7 NNW | 338 3.8 0.00 0.00 40.8 41.2
1/20/20 - 0000 40.7 97 39.9 0.8 NW | 321 3.4 0.00 0.00 35.7 47.4
1/19/20 - 2300 41.0 96 40.1 0.5 N | 5 3.4 0.00 0.00 35.7 47.4
1/19/20 - 2200 41.6 96 40.5 0.5 N | 354 3.1 0.00 0.00 35.7 47.4
1/19/20 - 2100 42.3 94 40.8 0.9 NW | 306 3.8 0.00 0.00 35.7 47.4
1/19/20 - 2000 42.3 94 40.6 1.1 ENE | 65 4.4 0.00 0.00 35.7 47.4
1/19/20 - 1900 42.6 94 40.9 3.7 ESE | 102 7.8 0.00 0.00 35.7 47.4
1/19/20 - 1800 43.3 92 41.2 4.7 E | 98 9.5 0.00 0.00 35.7 47.4
1/19/20 - 1700 45.0 88 41.8 6.4 E | 93 11.1 0.00 0.00 35.7 47.4
1/19/20 - 1600 46.5 85 42.3 6.2 E | 88 11.1 0.00 0.00 35.7 47.4
1/19/20 - 1500 47.1 83 42.2 6.6 E | 83 11.1 0.00 0.00 35.7 47.4
1/19/20 - 1400 47.1 82 41.9 8.8 E | 85 15.2 0.00 0.00 35.7 47.4
1/19/20 - 1300 46.4 83 41.6 10.0 E | 85 18.5 0.00 0.00 35.7 46.9
1/19/20 - 1200 45.5 87 41.8 10.4 E | 82 16.8 0.00 0.00 35.7 46.0
1/19/20 - 1100 43.7 92 41.6 9.6 E | 79 16.2 0.00 0.00 35.7 45.3
1/19/20 - 1000 40.7 98 40.2 5.0 ENE | 66 13.2 0.00 0.00 35.7 41.8
1/19/20 - 0900 38.8 98 38.4 2.8 NE | 46 6.1 0.00 0.00 35.7 40.4
1/19/20 - 0800 38.0 98 37.5 2.9 E | 79 7.8 0.00 0.00 35.7 40.4
1/19/20 - 0700 36.4 97 35.6 1.8 S | 173 6.4 0.00 0.00 35.7 40.4
1/19/20 - 0600 35.9 96 34.9 0.4 WNW | 294 2.1 0.00 0.00 35.7 40.4
1/19/20 - 0500 36.7 96 35.6 0.7 NW | 323 3.4 0.00 0.00 36.2 40.4
1/19/20 - 0400 37.0 95 35.8 0.6 W | 266 3.4 0.00 0.00 36.3 40.4
1/19/20 - 0300 38.5 94 37.0 0.8 NW | 323 3.1 0.00 0.00 37.3 40.4
1/19/20 - 0200 39.6 95 38.2 0.8 NW | 305 4.4 0.00 0.00 39.1 40.4
1/19/20 - 0100 40.3 95 38.9 1.8 NNW | 329 4.4 0.00 0.00 40.0 40.4
1/19/20 - 0000 40.9 94 39.4 0.9 NW | 324 3.8 0.00 0.00 33.2 55.6
1/18/20 - 2300 41.2 94 39.6 1.0 NNE | 18 3.8 0.00 0.00 33.2 55.6
Max 64.7 98 54.9 10.4 - 18.5 0.06 0.19 52.3 66.3
Avg 48.9 89 45.7 2.1 - 5.4 0.00 - - -
Min 35.9 53 34.9 0.4 - 0.4 0.00 0.00 33.2 39.1
Total - - - - - - 0.19 - - -
Tip: Bookmark this page for easy future reference